sensor_id;sensor_type;location;lat;lon;timestamp;P1;durP1;ratioP1;P2;durP2;ratioP2
49235;SDS011;35067;48.134;8.378;2024-03-23T00:52:51;1.58;;;1.42;;
49235;SDS011;35067;48.134;8.378;2024-03-23T00:54:54;2.85;;;1.80;;
49235;SDS011;35067;48.134;8.378;2024-03-23T00:55:55;3.70;;;2.23;;
49235;SDS011;35067;48.134;8.378;2024-03-23T00:56:56;2.03;;;1.90;;
49235;SDS011;35067;48.134;8.378;2024-03-23T00:57:56;2.07;;;1.70;;
49235;SDS011;35067;48.134;8.378;2024-03-23T00:58:57;2.97;;;2.00;;
49235;SDS011;35067;48.134;8.378;2024-03-23T00:59:58;2.40;;;2.00;;
49235;SDS011;35067;48.134;8.378;2024-03-23T01:00:58;1.67;;;1.57;;
49235;SDS011;35067;48.134;8.378;2024-03-23T01:01:59;1.80;;;1.50;;
49235;SDS011;35067;48.134;8.378;2024-03-23T01:03:00;3.10;;;1.80;;
49235;SDS011;35067;48.134;8.378;2024-03-23T01:04:00;2.50;;;1.90;;
49235;SDS011;35067;48.134;8.378;2024-03-23T01:05:02;2.33;;;1.75;;
49235;SDS011;35067;48.134;8.378;2024-03-23T01:06:03;2.05;;;1.48;;
49235;SDS011;35067;48.134;8.378;2024-03-23T01:07:04;3.10;;;1.87;;
49235;SDS011;35067;48.134;8.378;2024-03-23T01:08:05;2.33;;;1.93;;
49235;SDS011;35067;48.134;8.378;2024-03-23T01:09:06;2.08;;;1.88;;
49235;SDS011;35067;48.134;8.378;2024-03-23T01:10:09;3.17;;;1.63;;
49235;SDS011;35067;48.134;8.378;2024-03-23T01:11:09;2.47;;;1.60;;
49235;SDS011;35067;48.134;8.378;2024-03-23T01:12:10;2.10;;;1.90;;
49235;SDS011;35067;48.134;8.378;2024-03-23T01:13:11;2.57;;;1.90;;
49235;SDS011;35067;48.134;8.378;2024-03-23T01:14:11;3.67;;;2.30;;
49235;SDS011;35067;48.134;8.378;2024-03-23T01:15:12;3.23;;;2.07;;
49235;SDS011;35067;48.134;8.378;2024-03-23T01:16:13;3.47;;;1.87;;
49235;SDS011;35067;48.134;8.378;2024-03-23T01:17:13;2.23;;;2.03;;
49235;SDS011;35067;48.134;8.378;2024-03-23T01:18:14;1.90;;;1.40;;
49235;SDS011;35067;48.134;8.378;2024-03-23T01:19:15;2.03;;;1.83;;
49235;SDS011;35067;48.134;8.378;2024-03-23T01:20:16;3.03;;;1.80;;
49235;SDS011;35067;48.134;8.378;2024-03-23T01:21:16;3.57;;;1.77;;
49235;SDS011;35067;48.134;8.378;2024-03-23T01:22:17;3.40;;;1.87;;
49235;SDS011;35067;48.134;8.378;2024-03-23T01:23:18;2.57;;;1.80;;
49235;SDS011;35067;48.134;8.378;2024-03-23T01:24:18;3.83;;;2.20;;
49235;SDS011;35067;48.134;8.378;2024-03-23T01:25:19;2.60;;;1.90;;
49235;SDS011;35067;48.134;8.378;2024-03-23T01:26:19;2.87;;;1.93;;
49235;SDS011;35067;48.134;8.378;2024-03-23T01:27:20;1.97;;;1.70;;
49235;SDS011;35067;48.134;8.378;2024-03-23T01:28:21;3.17;;;2.00;;
49235;SDS011;35067;48.134;8.378;2024-03-23T01:29:22;3.00;;;2.27;;
49235;SDS011;35067;48.134;8.378;2024-03-23T01:30:23;3.10;;;2.23;;
49235;SDS011;35067;48.134;8.378;2024-03-23T01:31:23;2.70;;;2.30;;
49235;SDS011;35067;48.134;8.378;2024-03-23T01:32:24;3.23;;;1.93;;
49235;SDS011;35067;48.134;8.378;2024-03-23T01:33:25;3.07;;;2.00;;
49235;SDS011;35067;48.134;8.378;2024-03-23T01:34:25;3.20;;;2.20;;
49235;SDS011;35067;48.134;8.378;2024-03-23T01:35:27;2.88;;;1.75;;
49235;SDS011;35067;48.134;8.378;2024-03-23T01:36:28;2.80;;;2.15;;
49235;SDS011;35067;48.134;8.378;2024-03-23T01:37:29;2.43;;;2.00;;
49235;SDS011;35067;48.134;8.378;2024-03-23T01:38:30;2.73;;;2.20;;
49235;SDS011;35067;48.134;8.378;2024-03-23T01:39:30;3.23;;;2.20;;
49235;SDS011;35067;48.134;8.378;2024-03-23T01:40:31;2.80;;;2.20;;
49235;SDS011;35067;48.134;8.378;2024-03-23T01:41:32;3.50;;;2.23;;
49235;SDS011;35067;48.134;8.378;2024-03-23T01:42:33;2.60;;;2.10;;
49235;SDS011;35067;48.134;8.378;2024-03-23T01:43:33;2.17;;;1.97;;
49235;SDS011;35067;48.134;8.378;2024-03-23T01:44:34;2.30;;;2.10;;
49235;SDS011;35067;48.134;8.378;2024-03-23T01:45:35;7.67;;;2.40;;
49235;SDS011;35067;48.134;8.378;2024-03-23T01:46:39;3.72;;;2.10;;
49235;SDS011;35067;48.134;8.378;2024-03-23T01:47:41;2.92;;;1.95;;
49235;SDS011;35067;48.134;8.378;2024-03-23T01:48:42;4.30;;;2.43;;
49235;SDS011;35067;48.134;8.378;2024-03-23T01:49:43;3.40;;;1.90;;
49235;SDS011;35067;48.134;8.378;2024-03-23T01:50:43;6.67;;;2.33;;
49235;SDS011;35067;48.134;8.378;2024-03-23T01:51:44;4.83;;;2.07;;
49235;SDS011;35067;48.134;8.378;2024-03-23T01:52:45;4.57;;;2.10;;
49235;SDS011;35067;48.134;8.378;2024-03-23T01:53:47;3.60;;;2.15;;
49235;SDS011;35067;48.134;8.378;2024-03-23T01:54:47;3.70;;;2.20;;
49235;SDS011;35067;48.134;8.378;2024-03-23T01:55:49;2.70;;;2.20;;
49235;SDS011;35067;48.134;8.378;2024-03-23T01:56:51;3.47;;;2.35;;
49235;SDS011;35067;48.134;8.378;2024-03-23T01:57:52;4.20;;;2.45;;
49235;SDS011;35067;48.134;8.378;2024-03-23T01:58:56;4.10;;;2.67;;
49235;SDS011;35067;48.134;8.378;2024-03-23T01:59:57;2.90;;;2.30;;
49235;SDS011;35067;48.134;8.378;2024-03-23T02:00:58;3.40;;;2.53;;
49235;SDS011;35067;48.134;8.378;2024-03-23T02:01:58;4.47;;;2.73;;
49235;SDS011;35067;48.134;8.378;2024-03-23T02:02:59;3.97;;;2.70;;
49235;SDS011;35067;48.134;8.378;2024-03-23T02:04:00;6.53;;;2.50;;
49235;SDS011;35067;48.134;8.378;2024-03-23T02:05:01;2.87;;;2.30;;
49235;SDS011;35067;48.134;8.378;2024-03-23T02:06:01;2.53;;;2.20;;
49235;SDS011;35067;48.134;8.378;2024-03-23T02:07:02;4.60;;;2.47;;
49235;SDS011;35067;48.134;8.378;2024-03-23T02:08:05;3.40;;;2.40;;
49235;SDS011;35067;48.134;8.378;2024-03-23T02:09:06;5.87;;;2.40;;
49235;SDS011;35067;48.134;8.378;2024-03-23T02:10:07;6.27;;;3.37;;
49235;SDS011;35067;48.134;8.378;2024-03-23T02:11:09;5.70;;;2.75;;
49235;SDS011;35067;48.134;8.378;2024-03-23T02:12:10;4.37;;;2.30;;
49235;SDS011;35067;48.134;8.378;2024-03-23T02:13:11;5.77;;;2.40;;
49235;SDS011;35067;48.134;8.378;2024-03-23T02:14:12;3.70;;;2.60;;
49235;SDS011;35067;48.134;8.378;2024-03-23T02:15:13;8.70;;;2.55;;
49235;SDS011;35067;48.134;8.378;2024-03-23T02:16:14;3.80;;;2.20;;
49235;SDS011;35067;48.134;8.378;2024-03-23T02:17:14;3.97;;;2.87;;
49235;SDS011;35067;48.134;8.378;2024-03-23T02:18:15;2.50;;;2.17;;
49235;SDS011;35067;48.134;8.378;2024-03-23T02:19:16;6.20;;;2.50;;
49235;SDS011;35067;48.134;8.378;2024-03-23T02:20:17;4.47;;;2.63;;
49235;SDS011;35067;48.134;8.378;2024-03-23T02:21:17;3.10;;;2.53;;
49235;SDS011;35067;48.134;8.378;2024-03-23T02:22:18;5.10;;;2.50;;
49235;SDS011;35067;48.134;8.378;2024-03-23T02:23:19;3.73;;;2.40;;
49235;SDS011;35067;48.134;8.378;2024-03-23T02:24:20;3.50;;;2.50;;
49235;SDS011;35067;48.134;8.378;2024-03-23T02:25:20;3.43;;;2.27;;
49235;SDS011;35067;48.134;8.378;2024-03-23T02:26:21;3.60;;;2.63;;
49235;SDS011;35067;48.134;8.378;2024-03-23T02:27:22;4.43;;;3.17;;
49235;SDS011;35067;48.134;8.378;2024-03-23T02:28:24;3.10;;;2.38;;
49235;SDS011;35067;48.134;8.378;2024-03-23T02:29:25;4.23;;;2.40;;
49235;SDS011;35067;48.134;8.378;2024-03-23T02:30:25;3.20;;;2.50;;
49235;SDS011;35067;48.134;8.378;2024-03-23T02:31:26;5.07;;;2.70;;
49235;SDS011;35067;48.134;8.378;2024-03-23T02:32:27;3.90;;;2.40;;
49235;SDS011;35067;48.134;8.378;2024-03-23T02:33:28;3.17;;;2.43;;
49235;SDS011;35067;48.134;8.378;2024-03-23T02:34:28;4.13;;;2.57;;
49235;SDS011;35067;48.134;8.378;2024-03-23T02:35:29;4.30;;;2.83;;
49235;SDS011;35067;48.134;8.378;2024-03-23T02:36:30;3.60;;;2.20;;
49235;SDS011;35067;48.134;8.378;2024-03-23T02:37:31;3.13;;;2.40;;
49235;SDS011;35067;48.134;8.378;2024-03-23T02:38:32;3.58;;;2.70;;
49235;SDS011;35067;48.134;8.378;2024-03-23T02:39:33;4.47;;;2.37;;
49235;SDS011;35067;48.134;8.378;2024-03-23T02:40:33;4.47;;;2.23;;
49235;SDS011;35067;48.134;8.378;2024-03-23T02:41:34;4.53;;;2.10;;
49235;SDS011;35067;48.134;8.378;2024-03-23T02:42:35;2.37;;;1.80;;
49235;SDS011;35067;48.134;8.378;2024-03-23T02:43:35;6.20;;;2.30;;
49235;SDS011;35067;48.134;8.378;2024-03-23T02:44:36;3.53;;;2.17;;
49235;SDS011;35067;48.134;8.378;2024-03-23T02:45:37;2.53;;;2.00;;
49235;SDS011;35067;48.134;8.378;2024-03-23T02:46:38;4.67;;;2.40;;
49235;SDS011;35067;48.134;8.378;2024-03-23T02:47:38;2.95;;;2.13;;
49235;SDS011;35067;48.134;8.378;2024-03-23T02:48:39;3.20;;;2.10;;
49235;SDS011;35067;48.134;8.378;2024-03-23T02:49:40;2.80;;;2.10;;
49235;SDS011;35067;48.134;8.378;2024-03-23T02:50:40;3.47;;;2.00;;
49235;SDS011;35067;48.134;8.378;2024-03-23T02:51:41;3.17;;;2.10;;
49235;SDS011;35067;48.134;8.378;2024-03-23T02:52:42;2.90;;;1.77;;
49235;SDS011;35067;48.134;8.378;2024-03-23T02:53:42;2.50;;;1.80;;
49235;SDS011;35067;48.134;8.378;2024-03-23T02:54:43;3.93;;;2.53;;
49235;SDS011;35067;48.134;8.378;2024-03-23T02:55:45;3.00;;;1.80;;
49235;SDS011;35067;48.134;8.378;2024-03-23T02:56:45;3.40;;;1.67;;
49235;SDS011;35067;48.134;8.378;2024-03-23T02:57:46;5.77;;;2.00;;
49235;SDS011;35067;48.134;8.378;2024-03-23T02:58:47;3.20;;;1.97;;
49235;SDS011;35067;48.134;8.378;2024-03-23T02:59:47;8.97;;;2.13;;
49235;SDS011;35067;48.134;8.378;2024-03-23T03:00:48;3.43;;;2.10;;
49235;SDS011;35067;48.134;8.378;2024-03-23T03:01:49;4.90;;;1.90;;
49235;SDS011;35067;48.134;8.378;2024-03-23T03:02:49;5.30;;;1.90;;
49235;SDS011;35067;48.134;8.378;2024-03-23T03:03:50;4.47;;;1.87;;
49235;SDS011;35067;48.134;8.378;2024-03-23T03:04:51;3.30;;;1.73;;
49235;SDS011;35067;48.134;8.378;2024-03-23T03:05:55;3.93;;;1.83;;
49235;SDS011;35067;48.134;8.378;2024-03-23T03:06:56;3.45;;;2.25;;
49235;SDS011;35067;48.134;8.378;2024-03-23T03:07:57;4.97;;;2.23;;
49235;SDS011;35067;48.134;8.378;2024-03-23T03:08:57;2.50;;;1.60;;
49235;SDS011;35067;48.134;8.378;2024-03-23T03:09:58;2.87;;;1.63;;
49235;SDS011;35067;48.134;8.378;2024-03-23T03:10:59;2.80;;;1.90;;
49235;SDS011;35067;48.134;8.378;2024-03-23T03:11:59;3.60;;;2.00;;
49235;SDS011;35067;48.134;8.378;2024-03-23T03:13:02;2.95;;;1.70;;
49235;SDS011;35067;48.134;8.378;2024-03-23T03:14:03;2.25;;;1.73;;
49235;SDS011;35067;48.134;8.378;2024-03-23T03:15:04;2.70;;;1.50;;
49235;SDS011;35067;48.134;8.378;2024-03-23T03:16:08;2.53;;;1.70;;
49235;SDS011;35067;48.134;8.378;2024-03-23T03:17:10;1.83;;;1.55;;
49235;SDS011;35067;48.134;8.378;2024-03-23T03:18:10;3.53;;;1.80;;
49235;SDS011;35067;48.134;8.378;2024-03-23T03:19:11;4.13;;;1.70;;
49235;SDS011;35067;48.134;8.378;2024-03-23T03:20:12;2.70;;;1.73;;
49235;SDS011;35067;48.134;8.378;2024-03-23T03:21:13;3.00;;;2.10;;
49235;SDS011;35067;48.134;8.378;2024-03-23T03:22:14;3.73;;;1.80;;
49235;SDS011;35067;48.134;8.378;2024-03-23T03:23:14;4.43;;;2.23;;
49235;SDS011;35067;48.134;8.378;2024-03-23T03:24:15;2.97;;;1.90;;
49235;SDS011;35067;48.134;8.378;2024-03-23T03:25:16;4.13;;;1.95;;
49235;SDS011;35067;48.134;8.378;2024-03-23T03:26:17;2.87;;;1.50;;
49235;SDS011;35067;48.134;8.378;2024-03-23T03:27:18;3.57;;;1.90;;
49235;SDS011;35067;48.134;8.378;2024-03-23T03:28:19;2.25;;;1.48;;
49235;SDS011;35067;48.134;8.378;2024-03-23T03:29:20;5.30;;;1.90;;
49235;SDS011;35067;48.134;8.378;2024-03-23T03:30:21;2.30;;;1.90;;
49235;SDS011;35067;48.134;8.378;2024-03-23T03:31:22;2.20;;;1.60;;
49235;SDS011;35067;48.134;8.378;2024-03-23T03:32:22;2.77;;;1.73;;
49235;SDS011;35067;48.134;8.378;2024-03-23T03:33:23;4.27;;;1.70;;
49235;SDS011;35067;48.134;8.378;2024-03-23T03:34:24;4.00;;;2.00;;
49235;SDS011;35067;48.134;8.378;2024-03-23T03:35:24;2.47;;;1.60;;
49235;SDS011;35067;48.134;8.378;2024-03-23T03:36:25;2.73;;;2.13;;
49235;SDS011;35067;48.134;8.378;2024-03-23T03:37:26;2.20;;;1.83;;
49235;SDS011;35067;48.134;8.378;2024-03-23T03:38:26;4.93;;;2.00;;
49235;SDS011;35067;48.134;8.378;2024-03-23T03:39:27;2.10;;;1.90;;
49235;SDS011;35067;48.134;8.378;2024-03-23T03:40:28;4.17;;;2.07;;
49235;SDS011;35067;48.134;8.378;2024-03-23T03:41:28;2.70;;;1.90;;
49235;SDS011;35067;48.134;8.378;2024-03-23T03:42:31;2.78;;;1.90;;
49235;SDS011;35067;48.134;8.378;2024-03-23T03:43:31;3.27;;;1.77;;
49235;SDS011;35067;48.134;8.378;2024-03-23T03:44:32;2.60;;;1.77;;
49235;SDS011;35067;48.134;8.378;2024-03-23T03:45:33;3.90;;;1.80;;
49235;SDS011;35067;48.134;8.378;2024-03-23T03:46:33;2.80;;;1.80;;
49235;SDS011;35067;48.134;8.378;2024-03-23T03:47:34;2.70;;;1.90;;
49235;SDS011;35067;48.134;8.378;2024-03-23T03:48:35;5.00;;;2.40;;
49235;SDS011;35067;48.134;8.378;2024-03-23T03:49:35;2.23;;;1.90;;
49235;SDS011;35067;48.134;8.378;2024-03-23T03:50:36;3.80;;;1.97;;
49235;SDS011;35067;48.134;8.378;2024-03-23T03:51:37;2.90;;;1.90;;
49235;SDS011;35067;48.134;8.378;2024-03-23T03:52:37;2.23;;;1.90;;
49235;SDS011;35067;48.134;8.378;2024-03-23T03:53:38;2.73;;;2.00;;
49235;SDS011;35067;48.134;8.378;2024-03-23T03:54:39;5.93;;;2.20;;
49235;SDS011;35067;48.134;8.378;2024-03-23T03:55:39;3.33;;;1.97;;
49235;SDS011;35067;48.134;8.378;2024-03-23T03:56:40;5.87;;;1.90;;
49235;SDS011;35067;48.134;8.378;2024-03-23T03:57:41;3.80;;;2.07;;
49235;SDS011;35067;48.134;8.378;2024-03-23T03:58:42;3.13;;;2.23;;
49235;SDS011;35067;48.134;8.378;2024-03-23T03:59:43;2.90;;;2.10;;
49235;SDS011;35067;48.134;8.378;2024-03-23T04:00:44;5.30;;;2.22;;
49235;SDS011;35067;48.134;8.378;2024-03-23T04:01:44;3.17;;;2.23;;
49235;SDS011;35067;48.134;8.378;2024-03-23T04:02:45;2.93;;;2.20;;
49235;SDS011;35067;48.134;8.378;2024-03-23T04:03:46;2.80;;;2.03;;
49235;SDS011;35067;48.134;8.378;2024-03-23T04:04:47;4.20;;;2.77;;
49235;SDS011;35067;48.134;8.378;2024-03-23T04:05:54;6.37;;;2.13;;
49235;SDS011;35067;48.134;8.378;2024-03-23T04:06:58;3.03;;;2.15;;
49235;SDS011;35067;48.134;8.378;2024-03-23T04:08:02;2.47;;;2.25;;
49235;SDS011;35067;48.134;8.378;2024-03-23T04:09:04;4.55;;;2.20;;
49235;SDS011;35067;48.134;8.378;2024-03-23T04:10:06;4.07;;;2.90;;
49235;SDS011;35067;48.134;8.378;2024-03-23T04:11:07;3.88;;;2.00;;
49235;SDS011;35067;48.134;8.378;2024-03-23T04:12:08;3.70;;;2.50;;
49235;SDS011;35067;48.134;8.378;2024-03-23T04:13:09;3.28;;;2.00;;
49235;SDS011;35067;48.134;8.378;2024-03-23T04:14:10;4.40;;;2.50;;
49235;SDS011;35067;48.134;8.378;2024-03-23T04:15:11;3.57;;;2.20;;
49235;SDS011;35067;48.134;8.378;2024-03-23T04:16:11;3.67;;;2.20;;
49235;SDS011;35067;48.134;8.378;2024-03-23T04:17:12;3.03;;;2.00;;
49235;SDS011;35067;48.134;8.378;2024-03-23T04:18:13;3.60;;;2.20;;
49235;SDS011;35067;48.134;8.378;2024-03-23T04:19:14;3.45;;;2.25;;
49235;SDS011;35067;48.134;8.378;2024-03-23T04:20:15;2.63;;;2.27;;
49235;SDS011;35067;48.134;8.378;2024-03-23T04:21:16;2.95;;;2.50;;
49235;SDS011;35067;48.134;8.378;2024-03-23T04:22:17;3.03;;;2.37;;
49235;SDS011;35067;48.134;8.378;2024-03-23T04:23:18;4.43;;;2.30;;
49235;SDS011;35067;48.134;8.378;2024-03-23T04:24:19;4.10;;;2.47;;
49235;SDS011;35067;48.134;8.378;2024-03-23T04:25:21;3.70;;;2.13;;
49235;SDS011;35067;48.134;8.378;2024-03-23T04:26:21;3.43;;;2.20;;
49235;SDS011;35067;48.134;8.378;2024-03-23T04:27:25;4.57;;;2.57;;
49235;SDS011;35067;48.134;8.378;2024-03-23T04:28:26;3.85;;;2.30;;
49235;SDS011;35067;48.134;8.378;2024-03-23T04:29:26;6.37;;;2.57;;
49235;SDS011;35067;48.134;8.378;2024-03-23T04:30:27;4.93;;;3.20;;
49235;SDS011;35067;48.134;8.378;2024-03-23T04:31:29;8.35;;;2.70;;
49235;SDS011;35067;48.134;8.378;2024-03-23T04:32:31;3.47;;;2.40;;
49235;SDS011;35067;48.134;8.378;2024-03-23T04:33:32;5.17;;;2.40;;
49235;SDS011;35067;48.134;8.378;2024-03-23T04:34:33;4.30;;;2.43;;
49235;SDS011;35067;48.134;8.378;2024-03-23T04:35:33;6.27;;;2.67;;
49235;SDS011;35067;48.134;8.378;2024-03-23T04:36:34;5.43;;;2.10;;
49235;SDS011;35067;48.134;8.378;2024-03-23T04:37:37;4.27;;;2.77;;
49235;SDS011;35067;48.134;8.378;2024-03-23T04:38:40;3.17;;;2.30;;
49235;SDS011;35067;48.134;8.378;2024-03-23T04:39:41;6.03;;;2.67;;
49235;SDS011;35067;48.134;8.378;2024-03-23T04:40:42;4.17;;;2.40;;
49235;SDS011;35067;48.134;8.378;2024-03-23T04:41:42;3.70;;;2.23;;
49235;SDS011;35067;48.134;8.378;2024-03-23T04:42:43;4.87;;;2.50;;
49235;SDS011;35067;48.134;8.378;2024-03-23T04:43:44;4.20;;;2.80;;
49235;SDS011;35067;48.134;8.378;2024-03-23T04:44:45;3.93;;;2.60;;
49235;SDS011;35067;48.134;8.378;2024-03-23T04:45:46;3.93;;;2.93;;
49235;SDS011;35067;48.134;8.378;2024-03-23T04:46:46;3.27;;;2.67;;
49235;SDS011;35067;48.134;8.378;2024-03-23T04:47:47;5.07;;;2.87;;
49235;SDS011;35067;48.134;8.378;2024-03-23T04:48:48;4.50;;;3.07;;
49235;SDS011;35067;48.134;8.378;2024-03-23T04:49:48;4.83;;;2.30;;
49235;SDS011;35067;48.134;8.378;2024-03-23T04:50:49;3.37;;;2.60;;
49235;SDS011;35067;48.134;8.378;2024-03-23T04:51:54;3.47;;;2.35;;
49235;SDS011;35067;48.134;8.378;2024-03-23T04:52:55;6.93;;;2.90;;
49235;SDS011;35067;48.134;8.378;2024-03-23T04:53:56;4.33;;;2.90;;
49235;SDS011;35067;48.134;8.378;2024-03-23T04:54:56;4.93;;;3.10;;
49235;SDS011;35067;48.134;8.378;2024-03-23T04:55:57;3.10;;;2.63;;
49235;SDS011;35067;48.134;8.378;2024-03-23T04:56:59;3.75;;;2.60;;
49235;SDS011;35067;48.134;8.378;2024-03-23T04:58:00;3.47;;;2.80;;
49235;SDS011;35067;48.134;8.378;2024-03-23T04:59:00;5.00;;;2.93;;
49235;SDS011;35067;48.134;8.378;2024-03-23T05:00:02;3.97;;;3.30;;
49235;SDS011;35067;48.134;8.378;2024-03-23T05:01:05;3.55;;;2.67;;
49235;SDS011;35067;48.134;8.378;2024-03-23T05:02:06;4.72;;;3.45;;
49235;SDS011;35067;48.134;8.378;2024-03-23T05:03:07;4.77;;;2.93;;
49235;SDS011;35067;48.134;8.378;2024-03-23T05:04:08;4.97;;;2.80;;
49235;SDS011;35067;48.134;8.378;2024-03-23T05:05:09;4.68;;;2.67;;
49235;SDS011;35067;48.134;8.378;2024-03-23T05:06:09;4.17;;;2.73;;
49235;SDS011;35067;48.134;8.378;2024-03-23T05:07:10;5.13;;;3.10;;
49235;SDS011;35067;48.134;8.378;2024-03-23T05:08:11;5.30;;;3.03;;
49235;SDS011;35067;48.134;8.378;2024-03-23T05:09:12;5.78;;;2.67;;
49235;SDS011;35067;48.134;8.378;2024-03-23T05:10:13;4.47;;;2.80;;
49235;SDS011;35067;48.134;8.378;2024-03-23T05:11:14;5.70;;;3.10;;
49235;SDS011;35067;48.134;8.378;2024-03-23T05:12:15;5.18;;;3.45;;
49235;SDS011;35067;48.134;8.378;2024-03-23T05:13:16;3.90;;;3.00;;
49235;SDS011;35067;48.134;8.378;2024-03-23T05:14:16;6.53;;;3.43;;
49235;SDS011;35067;48.134;8.378;2024-03-23T05:15:17;5.77;;;3.30;;
49235;SDS011;35067;48.134;8.378;2024-03-23T05:16:18;5.60;;;3.17;;
49235;SDS011;35067;48.134;8.378;2024-03-23T05:17:18;3.63;;;3.20;;
49235;SDS011;35067;48.134;8.378;2024-03-23T05:18:19;5.57;;;2.83;;
49235;SDS011;35067;48.134;8.378;2024-03-23T05:19:21;2.53;;;1.88;;
49235;SDS011;35067;48.134;8.378;2024-03-23T05:20:22;3.22;;;1.95;;
49235;SDS011;35067;48.134;8.378;2024-03-23T05:21:23;3.10;;;2.13;;
49235;SDS011;35067;48.134;8.378;2024-03-23T05:22:23;3.03;;;1.90;;
49235;SDS011;35067;48.134;8.378;2024-03-23T05:23:24;2.33;;;1.90;;
49235;SDS011;35067;48.134;8.378;2024-03-23T05:24:25;2.80;;;2.05;;
49235;SDS011;35067;48.134;8.378;2024-03-23T05:25:26;2.60;;;1.83;;
49235;SDS011;35067;48.134;8.378;2024-03-23T05:26:27;2.83;;;1.57;;
49235;SDS011;35067;48.134;8.378;2024-03-23T05:27:28;5.53;;;1.93;;
49235;SDS011;35067;48.134;8.378;2024-03-23T05:28:28;3.27;;;2.10;;
49235;SDS011;35067;48.134;8.378;2024-03-23T05:29:29;1.77;;;1.40;;
49235;SDS011;35067;48.134;8.378;2024-03-23T05:30:30;2.70;;;1.70;;
49235;SDS011;35067;48.134;8.378;2024-03-23T05:31:30;2.80;;;1.80;;
49235;SDS011;35067;48.134;8.378;2024-03-23T05:32:32;3.03;;;1.63;;
49235;SDS011;35067;48.134;8.378;2024-03-23T05:33:32;1.63;;;1.50;;
49235;SDS011;35067;48.134;8.378;2024-03-23T05:34:33;2.27;;;1.87;;
49235;SDS011;35067;48.134;8.378;2024-03-23T05:35:34;2.50;;;2.30;;
49235;SDS011;35067;48.134;8.378;2024-03-23T05:36:35;2.50;;;2.30;;
49235;SDS011;35067;48.134;8.378;2024-03-23T05:37:36;2.58;;;2.38;;
49235;SDS011;35067;48.134;8.378;2024-03-23T05:38:37;4.45;;;2.35;;
49235;SDS011;35067;48.134;8.378;2024-03-23T05:39:38;3.27;;;2.40;;
49235;SDS011;35067;48.134;8.378;2024-03-23T05:40:38;3.57;;;2.27;;
49235;SDS011;35067;48.134;8.378;2024-03-23T05:41:40;3.13;;;2.72;;
49235;SDS011;35067;48.134;8.378;2024-03-23T05:42:41;3.20;;;2.60;;
49235;SDS011;35067;48.134;8.378;2024-03-23T05:43:42;3.13;;;2.67;;
49235;SDS011;35067;48.134;8.378;2024-03-23T05:44:45;4.20;;;3.80;;
49235;SDS011;35067;48.134;8.378;2024-03-23T05:45:52;3.83;;;3.20;;
49235;SDS011;35067;48.134;8.378;2024-03-23T05:46:59;5.95;;;4.07;;
49235;SDS011;35067;48.134;8.378;2024-03-23T05:48:00;4.60;;;3.77;;
49235;SDS011;35067;48.134;8.378;2024-03-23T05:49:01;4.63;;;4.07;;
49235;SDS011;35067;48.134;8.378;2024-03-23T05:50:02;4.43;;;3.75;;
49235;SDS011;35067;48.134;8.378;2024-03-23T05:51:04;4.35;;;3.90;;
49235;SDS011;35067;48.134;8.378;2024-03-23T05:52:04;5.10;;;4.20;;
49235;SDS011;35067;48.134;8.378;2024-03-23T05:53:05;5.60;;;4.33;;
49235;SDS011;35067;48.134;8.378;2024-03-23T05:54:06;5.83;;;4.20;;
49235;SDS011;35067;48.134;8.378;2024-03-23T05:55:07;4.90;;;4.20;;
49235;SDS011;35067;48.134;8.378;2024-03-23T05:56:08;5.37;;;4.30;;
49235;SDS011;35067;48.134;8.378;2024-03-23T05:57:09;6.33;;;4.47;;
49235;SDS011;35067;48.134;8.378;2024-03-23T05:58:09;7.33;;;4.63;;
49235;SDS011;35067;48.134;8.378;2024-03-23T05:59:10;7.73;;;5.60;;
49235;SDS011;35067;48.134;8.378;2024-03-23T06:00:11;6.67;;;5.13;;
49235;SDS011;35067;48.134;8.378;2024-03-23T06:01:18;5.53;;;4.90;;
49235;SDS011;35067;48.134;8.378;2024-03-23T06:02:19;6.80;;;4.97;;
49235;SDS011;35067;48.134;8.378;2024-03-23T06:03:19;8.33;;;5.50;;
49235;SDS011;35067;48.134;8.378;2024-03-23T06:04:20;6.72;;;5.00;;
49235;SDS011;35067;48.134;8.378;2024-03-23T06:05:22;6.80;;;5.13;;
49235;SDS011;35067;48.134;8.378;2024-03-23T06:06:23;6.82;;;5.53;;
49235;SDS011;35067;48.134;8.378;2024-03-23T06:07:24;7.40;;;5.63;;
49235;SDS011;35067;48.134;8.378;2024-03-23T06:08:25;8.27;;;5.37;;
49235;SDS011;35067;48.134;8.378;2024-03-23T06:09:25;7.60;;;5.40;;
49235;SDS011;35067;48.134;8.378;2024-03-23T06:10:26;7.30;;;6.33;;
49235;SDS011;35067;48.134;8.378;2024-03-23T06:11:27;7.38;;;5.15;;
49235;SDS011;35067;48.134;8.378;2024-03-23T06:12:28;7.47;;;5.50;;
49235;SDS011;35067;48.134;8.378;2024-03-23T06:13:29;7.57;;;5.17;;
49235;SDS011;35067;48.134;8.378;2024-03-23T06:14:30;7.60;;;5.77;;
49235;SDS011;35067;48.134;8.378;2024-03-23T06:15:30;7.40;;;5.97;;
49235;SDS011;35067;48.134;8.378;2024-03-23T06:16:31;7.90;;;5.88;;
49235;SDS011;35067;48.134;8.378;2024-03-23T06:17:32;7.23;;;5.93;;
49235;SDS011;35067;48.134;8.378;2024-03-23T06:18:33;8.27;;;6.30;;
49235;SDS011;35067;48.134;8.378;2024-03-23T06:19:34;9.83;;;6.60;;
49235;SDS011;35067;48.134;8.378;2024-03-23T06:20:35;9.93;;;6.93;;
49235;SDS011;35067;48.134;8.378;2024-03-23T06:21:35;11.73;;;7.90;;
49235;SDS011;35067;48.134;8.378;2024-03-23T06:22:36;9.87;;;7.27;;
49235;SDS011;35067;48.134;8.378;2024-03-23T06:23:37;13.95;;;8.23;;
49235;SDS011;35067;48.134;8.378;2024-03-23T06:24:38;11.00;;;8.00;;
49235;SDS011;35067;48.134;8.378;2024-03-23T06:25:38;13.50;;;8.97;;
49235;SDS011;35067;48.134;8.378;2024-03-23T06:26:39;10.40;;;6.93;;
49235;SDS011;35067;48.134;8.378;2024-03-23T06:27:40;10.50;;;7.57;;
49235;SDS011;35067;48.134;8.378;2024-03-23T06:28:41;14.17;;;9.53;;
49235;SDS011;35067;48.134;8.378;2024-03-23T06:29:41;12.93;;;8.53;;
49235;SDS011;35067;48.134;8.378;2024-03-23T06:30:42;12.23;;;7.67;;
49235;SDS011;35067;48.134;8.378;2024-03-23T06:31:43;14.53;;;9.73;;
49235;SDS011;35067;48.134;8.378;2024-03-23T06:32:43;13.67;;;9.13;;
49235;SDS011;35067;48.134;8.378;2024-03-23T06:33:44;14.70;;;8.97;;
49235;SDS011;35067;48.134;8.378;2024-03-23T06:34:45;13.77;;;8.60;;
49235;SDS011;35067;48.134;8.378;2024-03-23T06:35:49;14.80;;;10.07;;
49235;SDS011;35067;48.134;8.378;2024-03-23T06:36:52;11.55;;;9.00;;
49235;SDS011;35067;48.134;8.378;2024-03-23T06:37:52;11.37;;;7.73;;
49235;SDS011;35067;48.134;8.378;2024-03-23T06:38:53;10.33;;;7.23;;
49235;SDS011;35067;48.134;8.378;2024-03-23T06:39:54;7.43;;;5.37;;
49235;SDS011;35067;48.134;8.378;2024-03-23T06:40:54;7.87;;;4.97;;
49235;SDS011;35067;48.134;8.378;2024-03-23T06:41:55;6.13;;;4.83;;
49235;SDS011;35067;48.134;8.378;2024-03-23T06:42:56;5.50;;;4.43;;
49235;SDS011;35067;48.134;8.378;2024-03-23T06:43:57;5.07;;;3.87;;
49235;SDS011;35067;48.134;8.378;2024-03-23T06:44:58;6.70;;;3.37;;
49235;SDS011;35067;48.134;8.378;2024-03-23T06:45:58;4.77;;;3.30;;
49235;SDS011;35067;48.134;8.378;2024-03-23T06:46:59;3.93;;;2.80;;
49235;SDS011;35067;48.134;8.378;2024-03-23T06:48:00;4.60;;;2.67;;
49235;SDS011;35067;48.134;8.378;2024-03-23T06:49:01;2.47;;;2.07;;
49235;SDS011;35067;48.134;8.378;2024-03-23T06:50:02;2.30;;;2.00;;
49235;SDS011;35067;48.134;8.378;2024-03-23T06:51:04;4.07;;;1.80;;
49235;SDS011;35067;48.134;8.378;2024-03-23T06:52:04;4.17;;;2.40;;
49235;SDS011;35067;48.134;8.378;2024-03-23T06:53:05;2.50;;;2.03;;
49235;SDS011;35067;48.134;8.378;2024-03-23T06:54:06;1.97;;;1.50;;
49235;SDS011;35067;48.134;8.378;2024-03-23T06:55:07;1.77;;;1.33;;
49235;SDS011;35067;48.134;8.378;2024-03-23T06:56:08;1.50;;;1.20;;
49235;SDS011;35067;48.134;8.378;2024-03-23T06:57:09;2.00;;;1.47;;
49235;SDS011;35067;48.134;8.378;2024-03-23T06:58:09;1.10;;;1.00;;
49235;SDS011;35067;48.134;8.378;2024-03-23T06:59:10;2.20;;;1.70;;
49235;SDS011;35067;48.134;8.378;2024-03-23T07:00:11;2.60;;;1.87;;
49235;SDS011;35067;48.134;8.378;2024-03-23T07:01:13;1.33;;;1.08;;